Data for 06/25/2016

Time Sea-Level Adjusted Pressure Absolute Pressure Temperature Relative Humidity Dew Point   
(mb) (inHg) (mb) (inHg) (C) (F) (%) (C) (F)
00:05 1021 30.15 850 25.1 7.5 45.6 59 0.1 32.2
00:10 1021 30.15 850 25.1 7.4 45.2 60 0.2 32.4
00:15 1021 30.15 851 25.13 7.2 45 60 0 32.1
00:20 1021 30.15 851 25.13 7.1 44.9 60 -0.1 31.8
00:25 1021 30.15 851 25.13 7 44.6 59 -0.5 31.2
00:30 1021 30.15 851 25.13 7.1 44.7 58 -0.5 31.1
00:35 1021 30.15 851 25.13 7.1 44.8 56 -1.1 30
00:40 1021 30.15 851 25.13 7.3 45.1 54 -1.4 29.5
00:45 1021 30.15 851 25.13 7.4 45.3 53 -1.5 29.2
00:50 1021 30.15 851 25.13 7.6 45.6 52 -1.5 29.3
00:55 1021 30.15 851 25.13 7.6 45.7 54 -1 30.3
01:00 1022 30.18 851 25.13 7.4 45.4 54 -1.2 29.8
01:05 1022 30.18 851 25.13 7.3 45.2 56 -1 30.3
01:10 1022 30.18 851 25.13 7 44.5 58 -0.8 30.6
01:15 1022 30.18 851 25.13 6.6 43.9 60 -0.7 30.8
01:20 1022 30.18 851 25.13 6.5 43.7 61 -0.6 31
01:25 1022 30.18 851 25.13 6.5 43.6 61 -0.5 31.2
01:30 1022 30.18 851 25.13 6.4 43.5 62 -0.4 31.2
01:35 1022 30.18 851 25.13 6.4 43.5 60 -0.7 30.7
01:40 1022 30.18 851 25.13 6.6 43.8 58 -1 30.2
01:45 1022 30.18 851 25.13 6.6 43.8 63 0 32.1
01:50 1022 30.18 851 25.13 5.8 42.5 66 0 32
01:55 1022 30.18 851 25.13 5.5 41.9 68 -0 32
02:00 1022 30.18 851 25.13 5.4 41.7 65 -0.6 31
02:05 1022 30.18 851 25.13 5.7 42.3 61 -1.1 29.9
02:10 1022 30.18 851 25.13 6.1 43 63 -0.3 31.4
02:15 1022 30.18 851 25.13 6.1 43 63 -0.4 31.3
02:20 1022 30.18 851 25.13 6.1 42.9 63 -0.4 31.2
02:25 1022 30.18 851 25.13 5.9 42.6 63 -0.6 31
02:30 1022 30.18 851 25.13 5.8 42.5 62 -0.9 30.5
02:35 1022 30.18 851 25.13 5.6 42.2 66 -0.3 31.5
02:40 1022 30.18 851 25.13 5.2 41.4 67 -0.3 31.4
02:45 1022 30.18 851 25.13 5.1 41.1 67 -0.5 31
02:50 1022 30.18 851 25.13 5.2 41.3 64 -1 30.1
02:55 1022 30.18 851 25.13 5.4 41.7 63 -1 30.1
03:00 1022 30.18 851 25.13 5.5 42 63 -1 30.2
03:05 1022 30.18 852 25.16 5.6 42.1 63 -0.8 30.5
03:10 1022 30.18 852 25.16 5.8 42.5 61 -1.1 30
03:15 1022 30.18 852 25.16 5.8 42.5 62 -0.8 30.5
03:20 1022 30.18 851 25.13 5.6 42 61 -1.3 29.7
03:25 1022 30.18 851 25.13 5.7 42.2 58 -1.9 28.6
03:30 1022 30.18 852 25.16 6.1 43 57 -1.7 28.9
03:35 1023 30.21 852 25.16 6.2 43.1 58 -1.5 29.3
03:40 1022 30.18 852 25.16 5.9 42.7 59 -1.5 29.3
03:45 1022 30.18 852 25.16 5.8 42.5 58 -1.8 28.7
03:50 1022 30.18 852 25.16 5.7 42.2 57 -2.1 28.1
03:55 1022 30.18 852 25.16 5.8 42.5 54 -2.8 27
04:00 1022 30.18 852 25.16 6 42.7 54 -2.6 27.3
04:05 1022 30.18 852 25.16 5.8 42.5 55 -2.5 27.4
04:10 1022 30.18 852 25.16 5.5 42 55 -2.8 26.9
04:15 1022 30.18 852 25.16 5.6 42.1 53 -3.2 26.3
04:20 1022 30.18 852 25.16 5.8 42.4 53 -3.1 26.4
04:25 1023 30.21 852 25.16 5.8 42.5 52 -3.3 26.1
04:30 1023 30.21 852 25.16 6 42.7 52 -3.2 26.3
04:35 1023 30.21 852 25.16 5.9 42.6 53 -2.9 26.9
04:40 1023 30.21 852 25.16 5.7 42.2 55 -2.7 27.1
04:45 1023 30.21 852 25.16 5.4 41.8 55 -3 26.7
04:50 1023 30.21 852 25.16 5.7 42.3 54 -2.9 26.9
04:55 1023 30.21 852 25.16 6 42.8 54 -2.7 27.1
05:00 1023 30.21 852 25.16 5.9 42.7 54 -2.7 27.1
05:05 1023 30.21 852 25.16 6.1 43 52 -2.9 26.7
05:10 1023 30.21 852 25.16 6.2 43.2 51 -3.2 26.3
05:15 1023 30.21 852 25.16 6.4 43.5 51 -3 26.6
05:20 1023 30.21 852 25.16 6.5 43.6 49 -3.6 25.5
05:25 1023 30.21 852 25.16 6.8 44.3 47 -3.7 25.4
05:30 1023 30.21 852 25.16 6.9 44.4 48 -3.4 25.9
05:35 1023 30.21 852 25.16 7 44.6 47 -3.6 25.6
05:40 1023 30.21 852 25.16 7 44.6 47 -3.6 25.5
05:45 1023 30.21 852 25.16 7.1 44.8 45 -3.9 24.9
05:50 1023 30.21 853 25.19 7.2 44.9 45 -4.1 24.7
05:55 1023 30.21 853 25.19 7.3 45.2 44 -4.2 24.4
06:00 1023 30.21 853 25.19 7.5 45.5 42 -4.7 23.5
06:05 1023 30.21 853 25.19 7.8 46.1 40 -4.9 23.1
06:10 1023 30.21 853 25.19 8.1 46.6 39 -4.9 23.1
06:15 1023 30.21 852 25.16 8.3 46.9 39 -4.7 23.5
06:20 1023 30.21 853 25.19 8.3 47 40 -4.3 24.2
06:25 1023 30.21 853 25.19 8.4 47 41 -4.1 24.6
06:30 1024 30.24 853 25.19 8.4 47.2 41 -3.9 24.9
06:35 1024 30.24 853 25.19 8.6 47.5 41 -3.7 25.3
06:40 1024 30.24 853 25.19 8.8 47.9 41 -3.6 25.4
06:45 1024 30.24 853 25.19 9.1 48.4 39 -4 24.8
06:50 1024 30.24 853 25.19 9.4 49 39 -3.9 25
06:55 1024 30.24 853 25.19 9.8 49.6 38 -3.9 24.9
07:00 1024 30.24 853 25.19 10.3 50.5 36 -4.1 24.6
07:05 1024 30.24 853 25.19 10.5 50.9 36 -3.8 25.1
07:10 1024 30.24 853 25.19 10.7 51.3 36 -3.7 25.4
07:15 1024 30.24 853 25.19 11 51.9 35 -4 24.9
07:20 1024 30.24 853 25.19 11.2 52.2 35 -3.6 25.5
07:25 1024 30.24 853 25.19 11.5 52.8 34 -3.7 25.4
07:30 1024 30.24 853 25.19 11.3 52.3 36 -3.4 25.9
07:35 1024 30.24 853 25.19 11.6 52.9 35 -3.5 25.7
07:40 1024 30.24 854 25.22 11.7 53 33 -4.1 24.5
07:45 1024 30.24 854 25.22 11.6 52.9 32 -4.5 23.9
07:50 1025 30.27 854 25.22 11.7 53.1 32 -4.4 24.1
07:55 1024 30.24 854 25.22 11.9 53.4 31 -4.6 23.7
08:00 1024 30.24 854 25.22 12.4 54.3 31 -4.4 24.1
08:05 1024 30.24 854 25.22 12.7 54.9 30 -4.6 23.8
08:10 1024 30.24 854 25.22 12.8 55 30 -4.2 24.4
08:15 1024 30.24 854 25.22 13 55.3 29 -4.5 24
08:20 1024 30.24 854 25.22 13 55.5 30 -4.1 24.6
08:25 1024 30.24 854 25.22 12.9 55.1 30 -4.2 24.5
08:30 1024 30.24 853 25.19 13.2 55.7 28 -4.6 23.7
08:35 1024 30.24 853 25.19 13.2 55.8 29 -4.5 23.9
08:40 1024 30.24 854 25.22 13.3 55.9 29 -4.2 24.4
08:45 1024 30.24 854 25.22 13.4 56.1 29 -4.2 24.4
08:50 1024 30.24 854 25.22 14.1 57.4 28 -4.1 24.6
08:55 1024 30.24 854 25.22 14 57.1 27 -4.7 23.6
09:00 1024 30.24 853 25.19 14.2 57.6 28 -4 24.8
09:05 1024 30.24 853 25.19 14.5 58 28 -4 24.9
09:10 1024 30.24 853 25.19 14.5 58.1 27 -4 24.7
09:15 1024 30.24 853 25.19 14.4 57.9 27 -4.3 24.2
09:20 1024 30.24 853 25.19 14.6 58.2 27 -3.9 24.9
09:25 1024 30.24 853 25.19 15 58.9 26 -4.1 24.7
09:30 1024 30.24 853 25.19 15.1 59.2 27 -3.9 24.9
09:35 1024 30.24 853 25.19 15 59.1 27 -3.9 25
09:40 1024 30.24 853 25.19 15.1 59.1 26 -4.4 24.2
09:45 1024 30.24 853 25.19 15 59 26 -4.1 24.7
09:50 1024 30.24 853 25.19 15.3 59.6 27 -3.6 25.4
09:55 1024 30.24 853 25.19 15.5 59.8 26 -3.8 25.1
10:00 1024 30.24 853 25.19 15.4 59.8 27 -3.6 25.6
10:05 1024 30.24 853 25.19 15.3 59.6 27 -3.7 25.4
10:10 1024 30.24 853 25.19 15.2 59.4 27 -3.5 25.8
10:15 1024 30.24 853 25.19 15.4 59.7 27 -3.6 25.5
10:20 1024 30.24 853 25.19 15.6 60.1 26 -3.8 25.2
10:25 1024 30.24 853 25.19 16 60.9 26 -3.2 26.3
10:30 1024 30.24 853 25.19 16.2 61.1 26 -3.3 26.1
10:35 1024 30.24 853 25.19 15.9 60.5 26 -3.8 25.2
10:40 1024 30.24 853 25.19 16.3 61.4 26 -3.3 26.1
10:45 1024 30.24 853 25.19 16.4 61.4 25 -3.5 25.8
10:50 1024 30.24 853 25.19 16.6 61.9 26 -3 26.6
10:55 1024 30.24 853 25.19 16.9 62.4 26 -2.5 27.6
11:00 1024 30.24 853 25.19 17 62.5 25 -2.9 26.7
11:05 1024 30.24 853 25.19 17.2 63 24 -3.3 26
11:10 1024 30.24 853 25.19 17 62.7 25 -3.2 26.3
11:15 1023 30.21 853 25.19 17 62.6 24 -3.4 26
11:20 1023 30.21 853 25.19 17.4 63.4 25 -2.6 27.3
11:25 1023 30.21 853 25.19 17.5 63.5 23 -3.5 25.6
11:30 1023 30.21 853 25.19 17.4 63.3 24 -3.3 26
11:35 1023 30.21 853 25.19 17.7 63.9 24 -3 26.5
11:40 1023 30.21 853 25.19 17.4 63.3 25 -2.7 27.2
11:45 1023 30.21 853 25.19 17.4 63.4 24 -3.2 26.2
11:50 1023 30.21 853 25.19 17.9 64.1 25 -2.6 27.4
11:55 1023 30.21 853 25.19 17.5 63.6 26 -2.2 28
12:00 1023 30.21 853 25.19 17.5 63.5 26 -2.3 27.9
12:05 1023 30.21 853 25.19 18.1 64.6 23 -3 26.6
12:10 1023 30.21 853 25.19 18.1 64.6 25 -1.9 28.6
12:15 1024 30.24 853 25.19 18.5 65.2 23 -2.8 27
12:20 1023 30.21 853 25.19 18.7 65.7 23 -2.4 27.6
12:25 1023 30.21 853 25.19 18.6 65.5 24 -2.3 27.9
12:30 1023 30.21 853 25.19 18.3 64.9 24 -2.5 27.5
12:35 1023 30.21 853 25.19 18.6 65.5 23 -2.7 27.1
12:40 1023 30.21 852 25.16 18.7 65.7 23 -2.7 27.1
12:45 1023 30.21 853 25.19 19.2 66.6 24 -1.8 28.8
12:50 1023 30.21 853 25.19 19.3 66.7 24 -1.6 29.1
12:55 1023 30.21 853 25.19 18.8 65.9 26 -1 30.1
13:00 1023 30.21 853 25.19 18.8 65.8 23 -2.5 27.5
13:05 1023 30.21 853 25.19 19.8 67.7 24 -1.2 29.9
13:10 1023 30.21 853 25.19 19.7 67.5 23 -2 28.3
13:15 1023 30.21 853 25.19 20.1 68.1 23 -1.7 28.9
13:20 1023 30.21 853 25.19 19.8 67.6 23 -1.6 29.1
13:25 1023 30.21 852 25.16 20 68 22 -2.2 28
13:30 1023 30.21 852 25.16 20.4 68.6 23 -1.2 29.8
13:35 1023 30.21 852 25.16 20.2 68.4 23 -1.5 29.3
13:40 1023 30.21 852 25.16 20.1 68.3 23 -1.5 29.4
13:45 1023 30.21 852 25.16 20.4 68.7 23 -1.3 29.6
13:50 1023 30.21 852 25.16 20.5 68.9 23 -1.4 29.4
13:55 1023 30.21 852 25.16 20.4 68.7 23 -1.1 30
14:00 1023 30.21 852 25.16 20.4 68.7 22 -2 28.4
14:05 1023 30.21 852 25.16 20.6 69 22 -1.9 28.5
14:10 1023 30.21 852 25.16 20.6 69 21 -2.2 28
14:15 1023 30.21 852 25.16 20.4 68.8 21 -2.4 27.6
14:20 1023 30.21 852 25.16 20.7 69.3 20 -2.6 27.4
14:25 1023 30.21 852 25.16 21.1 70 21 -2.1 28.3
14:30 1023 30.21 853 25.19 21.3 70.4 20 -2.4 27.7
14:35 1023 30.21 852 25.16 21.5 70.6 20 -2 28.5
14:40 1023 30.21 852 25.16 21.1 70.1 21 -2 28.5
14:45 1023 30.21 852 25.16 21.3 70.3 20 -2.3 27.8
14:50 1023 30.21 852 25.16 21.1 70 20 -2.3 27.9
14:55 1023 30.21 852 25.16 21.1 70 20 -2.3 27.8
15:00 1023 30.21 852 25.16 21 69.7 20 -2.9 26.8
15:05 1023 30.21 852 25.16 20.8 69.5 19 -3.2 26.3
15:10 1023 30.21 852 25.16 21.6 70.9 18 -3.2 26.2
15:15 1023 30.21 852 25.16 21.8 71.2 19 -2.4 27.6
15:20 1023 30.21 852 25.16 22 71.7 19 -2.5 27.4
15:25 1023 30.21 852 25.16 21.9 71.3 19 -2.7 27.2
15:30 1023 30.21 852 25.16 22.3 72.2 19 -2.3 27.8
15:35 1023 30.21 852 25.16 22.6 72.6 19 -2.2 28
15:40 1023 30.21 852 25.16 22.1 71.8 18 -3 26.6
15:45 1023 30.21 852 25.16 22.4 72.2 18 -3.1 26.4
15:50 1023 30.21 852 25.16 22.7 72.8 17 -3.1 26.4
15:55 1023 30.21 852 25.16 22.5 72.4 18 -3 26.5
16:00 1022 30.18 852 25.16 22.3 72.1 18 -2.9 26.9
16:05 1022 30.18 852 25.16 22.3 72.1 18 -2.8 27
16:10 1022 30.18 852 25.16 22.5 72.5 18 -3 26.6
16:15 1022 30.18 852 25.16 22.3 72.2 18 -2.7 27.1
16:20 1022 30.18 852 25.16 22.2 71.9 19 -2.6 27.3
16:25 1022 30.18 852 25.16 22 71.6 19 -2.6 27.4
16:30 1022 30.18 852 25.16 22.1 71.8 18 -3.1 26.4
16:35 1022 30.18 852 25.16 22 71.6 18 -3.4 25.8
16:40 1022 30.18 852 25.16 22 71.6 18 -3 26.6
16:45 1022 30.18 852 25.16 22.2 71.9 18 -3.1 26.5
16:50 1022 30.18 852 25.16 22.2 72 18 -2.7 27.2
16:55 1022 30.18 852 25.16 22.3 72.1 18 -2.9 26.8
17:00 1022 30.18 851 25.13 22.4 72.4 18 -2.8 27
17:05 1022 30.18 851 25.13 22.3 72.1 18 -3 26.6
17:10 1022 30.18 851 25.13 22.3 72.1 18 -3.1 26.4
17:15 1022 30.18 851 25.13 22.2 72 17 -3.6 25.5
17:20 1022 30.18 851 25.13 22.4 72.4 17 -3.4 25.8
17:25 1022 30.18 851 25.13 22.6 72.6 17 -3.3 26.1
17:30 1022 30.18 851 25.13 22.4 72.3 17 -3.6 25.5
17:35 1022 30.18 851 25.13 22.3 72.1 18 -3.1 26.4
17:40 1022 30.18 851 25.13 22.4 72.3 17 -3.6 25.5
17:45 1022 30.18 851 25.13 22.3 72.1 17 -3.5 25.6
17:50 1022 30.18 851 25.13 22.2 72 18 -3.3 26.1
17:55 1022 30.18 851 25.13 22.2 71.9 18 -2.9 26.8
18:00 1022 30.18 851 25.13 22.3 72.1 18 -3.2 26.3
18:05 1022 30.18 851 25.13 22.2 72 18 -2.8 27
18:10 1022 30.18 851 25.13 22.4 72.3 17 -3.3 26
18:15 1022 30.18 851 25.13 22.4 72.2 18 -3 26.7
18:20 1022 30.18 851 25.13 22.5 72.5 17 -3.6 25.5
18:25 1022 30.18 851 25.13 22.3 72.2 18 -3 26.5
18:30 1022 30.18 851 25.13 22.1 71.7 18 -2.8 26.9
18:35 1022 30.18 851 25.13 21.7 71.1 19 -2.8 26.9
18:40 1022 30.18 851 25.13 21.6 70.8 19 -3 26.6
18:45 1022 30.18 851 25.13 21.4 70.6 20 -2.5 27.4
18:50 1022 30.18 851 25.13 21.3 70.3 19 -3.2 26.2
18:55 1022 30.18 851 25.13 21.2 70.1 18 -3.6 25.6
19:00 1022 30.18 851 25.13 21.2 70.1 19 -3.2 26.2
19:05 1022 30.18 851 25.13 21.1 70 20 -2.7 27.1
19:10 1022 30.18 851 25.13 21 69.9 19 -3 26.5
19:15 1022 30.18 851 25.13 21 69.8 20 -2.8 27
19:20 1022 30.18 851 25.13 21 69.7 20 -2.6 27.2
19:25 1022 30.18 851 25.13 20.9 69.6 21 -2.1 28.3
19:30 1022 30.18 851 25.13 20.8 69.5 20 -2.7 27.2
19:35 1022 30.18 851 25.13 20.8 69.4 20 -2.5 27.4
19:40 1022 30.18 851 25.13 20.6 69.2 22 -1.7 29
19:45 1022 30.18 851 25.13 20.5 68.8 22 -2.1 28.3
19:50 1022 30.18 852 25.16 20.4 68.7 23 -1.4 29.6
19:55 1022 30.18 852 25.16 20.2 68.3 23 -1.4 29.4
20:00 1022 30.18 852 25.16 20 67.9 23 -1.7 29
20:05 1022 30.18 852 25.16 19.8 67.7 24 -1 30.2
20:10 1022 30.18 852 25.16 19.6 67.2 27 0.3 32.6
20:15 1022 30.18 852 25.16 19.1 66.3 31 1.5 34.7
20:20 1022 30.18 852 25.16 18.5 65.3 31 1.1 34
20:25 1022 30.18 852 25.16 18.1 64.5 33 1.9 35.4
20:30 1022 30.18 852 25.16 17.5 63.5 35 1.8 35.3
20:35 1022 30.18 852 25.16 17 62.7 34 1.3 34.3
20:40 1023 30.21 852 25.16 16.5 61.6 36 1.4 34.6
20:45 1023 30.21 852 25.16 16 60.9 37 1.5 34.8
20:50 1023 30.21 852 25.16 15.6 60 40 2.1 35.7
20:55 1023 30.21 852 25.16 15.1 59.2 40 1.5 34.8
21:00 1023 30.21 852 25.16 14.9 58.9 40 1.5 34.6
21:05 1023 30.21 852 25.16 14.8 58.6 40 1.3 34.3
21:10 1023 30.21 852 25.16 14.7 58.5 41 1.6 34.8
21:15 1023 30.21 852 25.16 14.5 58.1 40 1.3 34.3
21:20 1023 30.21 852 25.16 14.4 57.8 41 1.4 34.6
21:25 1023 30.21 852 25.16 14.2 57.6 42 1.4 34.6
21:30 1023 30.21 852 25.16 14 57.1 42 1.5 34.7
21:35 1023 30.21 852 25.16 13.8 56.9 42 1.3 34.3
21:40 1023 30.21 852 25.16 13.7 56.7 42 1.2 34.2
21:45 1023 30.21 852 25.16 13.5 56.4 44 1.7 35
21:50 1023 30.21 852 25.16 13.1 55.6 46 1.7 35.1
21:55 1023 30.21 852 25.16 12.9 55.3 44 1.1 34
22:00 1023 30.21 852 25.16 13.1 55.5 42 0.5 32.8
22:05 1023 30.21 852 25.16 13.1 55.6 41 0.3 32.5
22:10 1023 30.21 852 25.16 13.2 55.8 40 0.1 32.2
22:15 1023 30.21 852 25.16 13.4 56.2 40 0.2 32.3
22:20 1023 30.21 852 25.16 13.5 56.3 40 0.1 32.2
22:25 1023 30.21 852 25.16 13.3 56 40 0.2 32.3
22:30 1023 30.21 852 25.16 13.2 55.8 41 0.3 32.5
22:35 1023 30.21 852 25.16 13.1 55.6 41 0.2 32.3
22:40 1023 30.21 852 25.16 12.8 55.1 42 0.3 32.6
22:45 1023 30.21 852 25.16 12.8 55.1 42 0.2 32.3
22:50 1023 30.21 852 25.16 12.7 54.9 42 0.2 32.3
22:55 1023 30.21 853 25.19 12.7 54.8 42 0.3 32.5
23:00 1023 30.21 853 25.19 12.5 54.5 42 0.1 32.1
23:05 1023 30.21 853 25.19 12.5 54.4 42 -0.1 31.9
23:10 1024 30.24 853 25.19 12.4 54.3 42 -0.2 31.7
23:15 1024 30.24 853 25.19 12.4 54.3 42 -0.2 31.6
23:20 1024 30.24 853 25.19 12.4 54.3 42 -0.2 31.7
23:25 1024 30.24 853 25.19 12.7 54.9 41 -0.2 31.7
23:30 1024 30.24 853 25.19 12.5 54.4 43 0.3 32.5
23:35 1024 30.24 853 25.19 12.1 53.8 44 0.3 32.5
23:40 1024 30.24 853 25.19 11.9 53.4 44 0.2 32.3
23:45 1024 30.24 853 25.19 11.7 53.1 45 0.3 32.5
23:50 1024 30.24 853 25.19 11.4 52.5 46 0.1 32.2
23:55 1024 30.24 853 25.19 11.3 52.3 46 0.2 32.4
24:00 1024 30.24 853 25.19 11.1 51.9 47 0.3 32.6